Aérodrome :
LOGIN :

S'inscrire | Disclaimer

   EN    FR    IT 

 










Légende :    VFR   VFR Marginal   IFR   IFR Intensif   IFR Très Intensif
Visi : 
Plafond : 
>= 8 km
>= 3000ft
5 à 8 km
1000 à 3000 ft
1500m à 5 km
500 à 1000 ft
800 à 1500m
200 à 500 ft
< 800m
< 200 ft
Symboles :   Orages  Brouillard  Fortes neiges  Fortes précipitations  Vent > 20 kt
SIGMETs :   Divers  Orages  Givrage  Turbulence  Onde Orograph.  Cendres Volcan.






- Altitude de l'aérodrome : 3125 ft
- Code IATA : ESB


LTAC - Ankara Esenboga

DERNIER METAR :
  • 192050Z 33001KT 7000 NSC M15/M18 Q1019 NOSIG RMK RWY21L VRB02KT RWY03L VRB02KT RWY21R 05002KT

METARs EXPIRÉS :
  • 192020Z 03003KT 8000 NSC M16/M18 Q1019 NOSIG RMK RWY21L 01003KT 340V040 RWY03L VRB02KT RWY21R VRB02KT
  • 191950Z 34003KT 8000 NSC M15/M19 Q1019 NOSIG RMK RWY21L 00000KT RWY03L 32002KT RWY21R 00000KT
  • 191920Z 06003KT CAVOK M14/M17 Q1019 NOSIG RMK RWY21L VRB02KT RWY03L 05004KT RWY21R 04004KT
  • 191850Z 07003KT CAVOK M13/M16 Q1019 NOSIG RMK RWY21L 01004KT RWY03L 06004KT RWY21R 02004KT
  • 191820Z 35004KT 320V030 CAVOK M15/M17 Q1018 NOSIG RMK RWY21L 36004KT RWY03L 36003KT 330V040 RWY21R 02004KT

TAF TAF LTAC
Valide du 19 à 18h jusqu'au 20 à 18h UTC


191640Z 1918/2018 VRB02KT CAVOK
TEMPO 2003/2007 2500 BR
BECMG 2007/2009 SCT040



MET'MAP, la Météo Aéronautique d'un coup d'oeil ! - Copyright ORBIFLY Décembre 2007 - Disclaimer

ORBIFLY MET'MAP TEAM :

Programmation & Développement : Alexandra Zaïnal
Sur une idée originale de : Baudouin d'Aumeries
Assistance à la programmation : Marc-Olivier Méhu
Soutien technique & logistique : Manuel Goepfert

Contact : metmap@orbifly.com




SOURCES & CREDITS :

   NOAA